Time;durP1;ratioP1;P1;durP2;ratioP2;P2;SDS_P1;SDS_P2;PMS_P1;PMS_P2;Temp;Humidity;BMP_temperature;BMP_pressure;BME280_temperature;BME280_humidity;BME280_pressure;Samples;Min_cycle;Max_cycle;Signal;HPM_P1;HPM_P2
2023/10/19 00:00:44;;;;;;;0.20;0.20;;;;;;;;;;5008166;28;20037;-82
2023/10/19 00:03:11;;;;;;;0.20;0.10;;;;;;;;;;4992816;28;20574;-81
2023/10/19 00:05:37;;;;;;;0.20;0.20;;;;;;;;;;4993406;28;20109;-83
2023/10/19 00:08:23;;;;;;;0.20;0.10;;;;;;;;;;4998315;28;20046;-84
2023/10/19 00:11:08;;;;;;;0.20;0.10;;;;;;;;;;5008836;28;20045;-82
2023/10/19 00:13:40;;;;;;;0.25;0.15;;;;;;;;;;5009999;28;20622;-86
2023/10/19 00:16:23;;;;;;;0.20;0.10;;;;;;;;;;5006456;28;20064;-83
2023/10/19 00:18:49;;;;;;;0.20;0.20;;;;;;;;;;5011571;28;20056;-82
2023/10/19 00:23:47;;;;;;;0.20;0.10;;;;;;;;;;5008723;28;20042;-84
2023/10/19 00:26:19;;;;;;;0.20;0.00;;;;;;;;;;5005458;28;20548;-82
2023/10/19 00:28:49;;;;;;;0.35;0.35;;;;;;;;;;4990931;28;20052;-83
2023/10/19 00:31:15;;;;;;;0.30;0.30;;;;;;;;;;5006349;28;20041;-82
2023/10/19 00:33:41;;;;;;;0.43;0.20;;;;;;;;;;4992859;28;20073;-84
2023/10/19 00:36:08;;;;;;;0.20;0.10;;;;;;;;;;4992366;28;20040;-83
2023/10/19 00:43:43;;;;;;;0.20;0.10;;;;;;;;;;5009454;28;20049;-82
2023/10/19 00:46:14;;;;;;;0.20;0.00;;;;;;;;;;5012014;28;20052;-84
2023/10/19 00:48:45;;;;;;;0.20;0.13;;;;;;;;;;4990410;28;20049;-83
2023/10/19 00:51:26;;;;;;;0.20;0.10;;;;;;;;;;5005091;28;20073;-83
2023/10/19 00:53:54;;;;;;;0.40;0.22;;;;;;;;;;4990930;28;20049;-83
2023/10/19 00:56:20;;;;;;;0.20;0.10;;;;;;;;;;4991433;28;20034;-82
2023/10/19 00:58:53;;;;;;;0.20;0.10;;;;;;;;;;5006651;28;20055;-84
2023/10/19 01:01:19;;;;;;;;;;;;;;;;;;4995975;28;20432;-84
2023/10/19 01:03:45;;;;;;;0.20;0.10;;;;;;;;;;5010453;28;19940;-83
2023/10/19 01:06:14;;;;;;;0.20;0.10;;;;;;;;;;4990262;28;20041;-83
2023/10/19 01:08:43;;;;;;;0.30;0.30;;;;;;;;;;4990527;28;20072;-84
2023/10/19 01:11:15;;;;;;;0.20;0.03;;;;;;;;;;5004279;28;20188;-82
2023/10/19 01:13:44;;;;;;;0.22;0.20;;;;;;;;;;5006326;28;20619;-84
2023/10/19 01:16:22;;;;;;;0.40;0.15;;;;;;;;;;4992212;28;20044;-84
2023/10/19 01:18:53;;;;;;;0.28;0.20;;;;;;;;;;4993556;28;20037;-83
2023/10/19 01:21:21;;;;;;;0.55;0.40;;;;;;;;;;4993948;28;20045;-84
2023/10/19 01:23:48;;;;;;;0.20;0.17;;;;;;;;;;4980475;28;20048;-86
2023/10/19 01:26:21;;;;;;;0.20;0.10;;;;;;;;;;4986532;28;20042;-87
2023/10/19 01:28:47;;;;;;;0.20;0.10;;;;;;;;;;4989101;28;20037;-82
2023/10/19 01:31:51;;;;;;;0.30;0.20;;;;;;;;;;5006157;28;20121;-85
2023/10/19 01:34:09;;;;;;;0.50;0.50;;;;;;;;;;5002674;28;20137;-85
2023/10/19 01:36:45;;;;;;;0.22;0.15;;;;;;;;;;4985267;28;20088;-83
2023/10/19 01:39:11;;;;;;;0.20;0.10;;;;;;;;;;4988532;28;20052;-84
2023/10/19 01:41:37;;;;;;;0.20;0.20;;;;;;;;;;4993025;28;20128;-81
2023/10/19 01:44:04;;;;;;;0.30;0.20;;;;;;;;;;5002199;28;20041;-85
2023/10/19 01:46:35;;;;;;;0.20;0.20;;;;;;;;;;4992552;28;20498;-87
2023/10/19 01:49:02;;;;;;;0.20;0.10;;;;;;;;;;5003800;28;20393;-84
2023/10/19 01:51:29;;;;;;;0.20;0.10;;;;;;;;;;4989013;28;20103;-84
2023/10/19 01:54:00;;;;;;;0.20;0.10;;;;;;;;;;5009235;28;20041;-85
2023/10/19 01:56:28;;;;;;;0.20;0.10;;;;;;;;;;4995118;28;20037;-83
2023/10/19 01:58:54;;;;;;;0.20;0.10;;;;;;;;;;4988049;28;20045;-86
2023/10/19 02:01:28;;;;;;;0.20;0.10;;;;;;;;;;4991632;28;20053;-84
2023/10/19 02:04:03;;;;;;;0.20;0.10;;;;;;;;;;4984541;28;20461;-84
2023/10/19 02:06:37;;;;;;;0.20;0.10;;;;;;;;;;5002434;28;20056;-82
2023/10/19 02:11:50;;;;;;;0.20;0.10;;;;;;;;;;5000190;28;20129;-86
2023/10/19 02:14:18;;;;;;;0.20;0.10;;;;;;;;;;4987870;28;20041;-84
2023/10/19 02:16:52;;;;;;;0.30;0.30;;;;;;;;;;4989838;28;20037;-84
2023/10/19 02:19:19;;;;;;;0.20;0.10;;;;;;;;;;4985700;28;20132;-85
2023/10/19 02:21:48;;;;;;;0.95;0.90;;;;;;;;;;4986597;28;20044;-86
2023/10/19 02:24:14;;;;;;;0.30;0.30;;;;;;;;;;4986572;28;20034;-87
2023/10/19 02:26:41;;;;;;;0.85;0.75;;;;;;;;;;4985591;28;20041;-82
2023/10/19 02:29:09;;;;;;;0.20;0.03;;;;;;;;;;4988079;28;20037;-89
2023/10/19 02:31:39;;;;;;;0.20;0.10;;;;;;;;;;4989747;28;20129;-87
2023/10/19 02:34:07;;;;;;;0.20;0.13;;;;;;;;;;4998669;28;20038;-85
2023/10/19 02:36:34;;;;;;;0.20;0.10;;;;;;;;;;5000539;28;20143;-86
2023/10/19 02:39:16;;;;;;;0.30;0.30;;;;;;;;;;5004589;28;20549;-86
2023/10/19 02:41:49;;;;;;;0.75;0.30;;;;;;;;;;4989210;28;20169;-89
2023/10/19 02:44:22;;;;;;;0.20;0.10;;;;;;;;;;4993686;28;20041;-87
2023/10/19 02:47:00;;;;;;;0.28;0.20;;;;;;;;;;4986903;28;20378;-88
2023/10/19 02:49:26;;;;;;;0.20;0.10;;;;;;;;;;5000820;28;20491;-86
2023/10/19 02:52:02;;;;;;;0.65;0.43;;;;;;;;;;4986314;28;20047;-85
2023/10/19 02:54:34;;;;;;;0.20;0.10;;;;;;;;;;5001085;28;20119;-86
2023/10/19 02:57:02;;;;;;;0.20;0.10;;;;;;;;;;5000051;28;20171;-86
2023/10/19 02:59:29;;;;;;;0.35;0.32;;;;;;;;;;4999297;28;20042;-86
2023/10/19 03:04:37;;;;;;;0.20;0.10;;;;;;;;;;5018546;28;20135;-85
2023/10/19 03:07:04;;;;;;;0.20;0.00;;;;;;;;;;4991120;28;20129;-87
2023/10/19 03:09:30;;;;;;;0.20;0.10;;;;;;;;;;4986557;28;20033;-84
2023/10/19 03:12:00;;;;;;;0.20;0.10;;;;;;;;;;4992019;28;20433;-84
2023/10/19 03:14:29;;;;;;;0.20;0.10;;;;;;;;;;4990932;28;20029;-85
2023/10/19 03:16:55;;;;;;;0.20;0.13;;;;;;;;;;5000136;28;20890;-83
2023/10/19 03:19:21;;;;;;;0.20;0.10;;;;;;;;;;4985821;28;20037;-87
2023/10/19 03:21:50;;;;;;;0.20;0.10;;;;;;;;;;4988282;28;20041;-87
2023/10/19 03:24:23;;;;;;;0.30;0.20;;;;;;;;;;4983003;28;20128;-86
2023/10/19 03:26:49;;;;;;;;;;;;;;;;;;4986564;28;20052;-85
2023/10/19 03:29:18;;;;;;;0.30;0.25;;;;;;;;;;4991708;28;19917;-84
2023/10/19 03:31:44;;;;;;;0.30;0.20;;;;;;;;;;5001717;28;20041;-84
2023/10/19 03:34:12;;;;;;;0.20;0.10;;;;;;;;;;4989470;28;20092;-85
2023/10/19 03:36:39;;;;;;;0.20;0.10;;;;;;;;;;4989779;28;20038;-86
2023/10/19 03:39:17;;;;;;;0.20;0.10;;;;;;;;;;5000923;28;20041;-85
2023/10/19 03:41:44;;;;;;;0.38;0.38;;;;;;;;;;4989070;28;20045;-85
2023/10/19 03:44:24;;;;;;;0.20;0.10;;;;;;;;;;4982686;28;20493;-86
2023/10/19 03:46:57;;;;;;;0.20;0.05;;;;;;;;;;5006251;28;20053;-84
2023/10/19 03:49:39;;;;;;;0.20;0.20;;;;;;;;;;4988440;28;20045;-83
2023/10/19 03:54:41;;;;;;;0.20;0.13;;;;;;;;;;5004755;28;20545;-84
2023/10/19 03:57:11;;;;;;;0.25;0.25;;;;;;;;;;5016745;28;20064;-86
2023/10/19 03:59:41;;;;;;;0.20;0.10;;;;;;;;;;4987493;28;20506;-86
2023/10/19 04:02:13;;;;;;;0.20;0.10;;;;;;;;;;4992247;28;20318;-84
2023/10/19 04:04:48;;;;;;;0.77;0.40;;;;;;;;;;4999432;28;20056;-83
2023/10/19 04:07:21;;;;;;;0.20;0.20;;;;;;;;;;4981155;28;20056;-84
2023/10/19 04:12:35;;;;;;;0.20;0.10;;;;;;;;;;5005295;28;20053;-84
2023/10/19 04:17:42;;;;;;;0.20;0.10;;;;;;;;;;5007345;28;20038;-84
2023/10/19 04:20:26;;;;;;;0.20;0.10;;;;;;;;;;4987948;28;20085;-85
2023/10/19 04:22:56;;;;;;;0.20;0.08;;;;;;;;;;4983058;28;20120;-83
2023/10/19 04:25:25;;;;;;;0.20;0.10;;;;;;;;;;4987001;28;20045;-84
2023/10/19 04:27:51;;;;;;;0.20;0.10;;;;;;;;;;4997777;28;20034;-85
2023/10/19 04:30:21;;;;;;;0.20;0.10;;;;;;;;;;4988722;28;20041;-83
2023/10/19 04:32:51;;;;;;;0.20;0.10;;;;;;;;;;4985580;28;20052;-83
2023/10/19 04:35:23;;;;;;;0.20;0.00;;;;;;;;;;4987889;28;20498;-88
2023/10/19 04:37:52;;;;;;;0.20;0.10;;;;;;;;;;5008627;28;20077;-85
2023/10/19 04:40:22;;;;;;;0.20;0.10;;;;;;;;;;4995861;28;20037;-86
2023/10/19 04:42:49;;;;;;;0.60;0.57;;;;;;;;;;5011807;28;20045;-84
2023/10/19 04:45:15;;;;;;;0.20;0.10;;;;;;;;;;4994911;28;20336;-86
2023/10/19 04:47:41;;;;;;;0.20;0.10;;;;;;;;;;4995687;28;20081;-85
2023/10/19 04:50:07;;;;;;;0.20;0.10;;;;;;;;;;4989793;28;20041;-84
2023/10/19 04:52:33;;;;;;;0.20;0.10;;;;;;;;;;4990655;28;20051;-84
2023/10/19 04:55:01;;;;;;;0.40;0.20;;;;;;;;;;4992614;28;20033;-85
2023/10/19 04:57:27;;;;;;;0.40;0.10;;;;;;;;;;4991078;28;20092;-85
2023/10/19 04:59:53;;;;;;;0.20;0.10;;;;;;;;;;5003990;28;20046;-84
2023/10/19 05:02:19;;;;;;;0.20;0.10;;;;;;;;;;5011738;28;20514;-84
2023/10/19 05:04:45;;;;;;;0.20;0.10;;;;;;;;;;5004852;28;20048;-83
2023/10/19 05:07:17;;;;;;;0.20;0.10;;;;;;;;;;4988544;28;20050;-86
2023/10/19 05:09:46;;;;;;;0.28;0.13;;;;;;;;;;4992063;28;20052;-85
2023/10/19 05:12:14;;;;;;;0.20;0.00;;;;;;;;;;5006610;28;20046;-86
2023/10/19 05:14:41;;;;;;;0.20;0.10;;;;;;;;;;5002413;28;20046;-85
2023/10/19 05:17:08;;;;;;;0.20;0.10;;;;;;;;;;5007762;28;20046;-85
2023/10/19 05:19:35;;;;;;;0.20;0.10;;;;;;;;;;5003526;28;20198;-85
2023/10/19 05:22:01;;;;;;;0.20;0.10;;;;;;;;;;5010711;28;20045;-85
2023/10/19 05:24:28;;;;;;;0.20;0.10;;;;;;;;;;4986089;28;20041;-85
2023/10/19 05:26:54;;;;;;;0.20;0.00;;;;;;;;;;4985474;28;20051;-86
2023/10/19 05:29:26;;;;;;;0.38;0.38;;;;;;;;;;5003858;28;20038;-85
2023/10/19 05:31:57;;;;;;;0.20;0.00;;;;;;;;;;5001915;28;20100;-84
2023/10/19 05:34:26;;;;;;;0.20;0.00;;;;;;;;;;4984937;28;20789;-83
2023/10/19 05:36:58;;;;;;;0.20;0.00;;;;;;;;;;4989988;28;20714;-83
2023/10/19 05:39:27;;;;;;;0.20;0.00;;;;;;;;;;5006767;28;20037;-83
2023/10/19 05:41:54;;;;;;;0.20;0.10;;;;;;;;;;4988344;28;20037;-86
2023/10/19 05:44:20;;;;;;;0.20;0.00;;;;;;;;;;4994176;28;20045;-85
2023/10/19 05:46:46;;;;;;;0.20;0.20;;;;;;;;;;4991580;28;20100;-84
2023/10/19 05:49:13;;;;;;;0.20;0.00;;;;;;;;;;4984814;28;20095;-85
2023/10/19 05:51:41;;;;;;;0.20;0.00;;;;;;;;;;5006582;28;20064;-84
2023/10/19 05:54:08;;;;;;;0.20;0.10;;;;;;;;;;5003098;28;20169;-83
2023/10/19 05:56:34;;;;;;;0.20;0.10;;;;;;;;;;4991984;28;20033;-85
2023/10/19 05:59:01;;;;;;;0.20;0.00;;;;;;;;;;4993952;28;20050;-85
2023/10/19 06:01:27;;;;;;;0.20;0.10;;;;;;;;;;4990346;28;20037;-85
2023/10/19 06:03:53;;;;;;;0.20;0.10;;;;;;;;;;5007994;28;20041;-85
2023/10/19 06:06:22;;;;;;;0.20;0.00;;;;;;;;;;5003623;28;20076;-84
2023/10/19 06:08:53;;;;;;;0.73;0.13;;;;;;;;;;4990502;28;20044;-83
2023/10/19 06:11:19;;;;;;;0.20;0.17;;;;;;;;;;4984722;28;20096;-83
2023/10/19 06:13:45;;;;;;;0.20;0.10;;;;;;;;;;5001279;28;20042;-83
2023/10/19 06:16:12;;;;;;;0.20;0.00;;;;;;;;;;4990892;28;20497;-82
2023/10/19 06:18:38;;;;;;;0.20;0.10;;;;;;;;;;4997189;28;20100;-86
2023/10/19 06:21:04;;;;;;;0.20;0.00;;;;;;;;;;4990931;28;20045;-85
2023/10/19 06:23:31;;;;;;;0.20;0.10;;;;;;;;;;4995383;28;20038;-86
2023/10/19 06:25:57;;;;;;;0.20;0.10;;;;;;;;;;4990398;28;20042;-85
2023/10/19 06:28:23;;;;;;;0.20;0.10;;;;;;;;;;4991546;28;20042;-84
2023/10/19 06:30:50;;;;;;;0.20;0.08;;;;;;;;;;4996515;28;20068;-86
2023/10/19 06:33:16;;;;;;;0.20;0.10;;;;;;;;;;4994099;28;20033;-84
2023/10/19 06:35:42;;;;;;;0.20;0.10;;;;;;;;;;4995116;28;20065;-84
2023/10/19 06:38:09;;;;;;;0.20;0.10;;;;;;;;;;5022074;23;20544;-84
2023/10/19 06:40:39;;;;;;;0.20;0.00;;;;;;;;;;5024322;28;20095;-85
2023/10/19 06:43:07;;;;;;;0.20;0.10;;;;;;;;;;5018456;28;20091;-83
2023/10/19 06:45:33;;;;;;;0.20;0.10;;;;;;;;;;5015105;28;20091;-83
2023/10/19 06:48:00;;;;;;;0.20;0.10;;;;;;;;;;5018937;28;20063;-84
2023/10/19 06:50:26;;;;;;;0.52;0.52;;;;;;;;;;5015483;28;20041;-85
2023/10/19 06:52:54;;;;;;;0.20;0.05;;;;;;;;;;5022890;28;20044;-84
2023/10/19 06:55:20;;;;;;;0.20;0.10;;;;;;;;;;5015671;28;20048;-84
2023/10/19 06:57:50;;;;;;;0.20;0.10;;;;;;;;;;5003534;28;20421;-87
2023/10/19 07:00:21;;;;;;;0.20;0.10;;;;;;;;;;5018649;28;20033;-84
2023/10/19 07:02:47;;;;;;;0.20;0.13;;;;;;;;;;5020197;28;20049;-83
2023/10/19 07:05:18;;;;;;;0.20;0.10;;;;;;;;;;5021441;28;20694;-83
2023/10/19 07:07:44;;;;;;;0.20;0.10;;;;;;;;;;5003712;28;20041;-81
2023/10/19 07:10:12;;;;;;;0.20;0.10;;;;;;;;;;5004285;28;20516;-82
2023/10/19 07:12:38;;;;;;;0.20;0.10;;;;;;;;;;5002073;28;20266;-82
2023/10/19 07:15:07;;;;;;;0.20;0.10;;;;;;;;;;5017345;28;20604;-83
2023/10/19 07:17:33;;;;;;;0.75;0.52;;;;;;;;;;5019493;28;20041;-82
2023/10/19 07:19:59;;;;;;;0.20;0.00;;;;;;;;;;5003042;28;20033;-82
2023/10/19 07:22:25;;;;;;;0.20;0.03;;;;;;;;;;5020886;28;20089;-81
2023/10/19 07:24:51;;;;;;;0.20;0.00;;;;;;;;;;5008484;28;20042;-82
2023/10/19 07:27:19;;;;;;;0.20;0.05;;;;;;;;;;5006392;28;20042;-83
2023/10/19 07:29:45;;;;;;;0.20;0.10;;;;;;;;;;5023889;28;20050;-82
2023/10/19 07:32:13;;;;;;;0.20;0.10;;;;;;;;;;5020148;28;20037;-81
2023/10/19 07:34:39;;;;;;;0.20;0.03;;;;;;;;;;5017483;28;20045;-81
2023/10/19 07:37:07;;;;;;;0.20;0.10;;;;;;;;;;5005291;28;20040;-82
2023/10/19 07:39:34;;;;;;;0.20;0.10;;;;;;;;;;5021944;28;20038;-82
2023/10/19 07:42:01;;;;;;;0.20;0.10;;;;;;;;;;5026052;28;20058;-82
2023/10/19 07:44:30;;;;;;;0.38;0.25;;;;;;;;;;5021212;28;20048;-83
2023/10/19 07:46:56;;;;;;;0.20;0.10;;;;;;;;;;5021473;28;20038;-82
2023/10/19 07:49:22;;;;;;;0.20;0.10;;;;;;;;;;5021195;28;20041;-83
2023/10/19 07:51:49;;;;;;;0.20;0.10;;;;;;;;;;5004170;28;20040;-83
2023/10/19 07:54:15;;;;;;;0.20;0.10;;;;;;;;;;5017650;28;20053;-83
2023/10/19 07:56:42;;;;;;;0.20;0.10;;;;;;;;;;5007168;28;20033;-81
2023/10/19 07:59:08;;;;;;;0.20;0.00;;;;;;;;;;5003360;28;20037;-82
2023/10/19 08:01:34;;;;;;;0.20;0.03;;;;;;;;;;5003572;28;20422;-81
2023/10/19 08:04:00;;;;;;;0.45;0.40;;;;;;;;;;4992567;28;20046;-84
2023/10/19 08:06:26;;;;;;;0.20;0.10;;;;;;;;;;4999105;28;20124;-82
2023/10/19 08:08:53;;;;;;;0.20;0.10;;;;;;;;;;4998188;28;20088;-83
2023/10/19 08:11:19;;;;;;;0.20;0.10;;;;;;;;;;5010279;28;20437;-83
2023/10/19 08:13:45;;;;;;;0.20;0.10;;;;;;;;;;5003206;28;20038;-83
2023/10/19 08:16:12;;;;;;;0.20;0.10;;;;;;;;;;4999410;28;20509;-85
2023/10/19 08:18:39;;;;;;;0.20;0.10;;;;;;;;;;5014034;28;20505;-82
2023/10/19 08:21:07;;;;;;;0.20;0.10;;;;;;;;;;5004361;28;20445;-85
2023/10/19 08:23:33;;;;;;;0.20;0.10;;;;;;;;;;4991220;28;20052;-83
2023/10/19 08:25:59;;;;;;;0.20;0.00;;;;;;;;;;5004502;28;20060;-82
2023/10/19 08:28:27;;;;;;;0.20;0.10;;;;;;;;;;5006524;28;20037;-85
2023/10/19 08:31:02;;;;;;;0.20;0.03;;;;;;;;;;4995681;28;20494;-84
2023/10/19 08:33:29;;;;;;;0.20;0.00;;;;;;;;;;5013705;28;20785;-82
2023/10/19 08:35:56;;;;;;;0.20;0.10;;;;;;;;;;4999054;28;20038;-81
2023/10/19 08:38:23;;;;;;;0.20;0.00;;;;;;;;;;5006880;28;20036;-82
2023/10/19 08:40:50;;;;;;;0.20;0.00;;;;;;;;;;5015153;28;20493;-82
2023/10/19 08:43:18;;;;;;;0.20;0.13;;;;;;;;;;5009882;28;20041;-83
2023/10/19 08:45:44;;;;;;;0.20;0.10;;;;;;;;;;5006170;28;20086;-84
2023/10/19 08:48:11;;;;;;;0.20;0.10;;;;;;;;;;5001498;28;20037;-83
2023/10/19 08:50:37;;;;;;;0.20;0.10;;;;;;;;;;5008903;28;20049;-84
2023/10/19 08:53:04;;;;;;;0.20;0.05;;;;;;;;;;5017148;28;20123;-84
2023/10/19 08:55:30;;;;;;;0.20;0.10;;;;;;;;;;5013319;28;20418;-84
2023/10/19 08:57:59;;;;;;;0.20;0.10;;;;;;;;;;5018271;28;20033;-84
2023/10/19 09:00:26;;;;;;;0.20;0.10;;;;;;;;;;5012860;28;20061;-82
2023/10/19 09:02:53;;;;;;;0.20;0.10;;;;;;;;;;5009430;28;20041;-84
2023/10/19 09:05:22;;;;;;;1.17;0.43;;;;;;;;;;4989847;28;20045;-83
2023/10/19 09:07:59;;;;;;;0.20;0.10;;;;;;;;;;4999343;28;20456;-83
2023/10/19 09:10:26;;;;;;;0.20;0.00;;;;;;;;;;4992652;28;20406;-85
2023/10/19 09:13:03;;;;;;;0.20;0.10;;;;;;;;;;4993238;28;20573;-83
2023/10/19 09:15:32;;;;;;;0.20;0.10;;;;;;;;;;5011374;28;20037;-84
2023/10/19 09:17:59;;;;;;;0.20;0.08;;;;;;;;;;5004464;28;20041;-85
2023/10/19 09:20:27;;;;;;;0.20;0.10;;;;;;;;;;4998983;28;20057;-84
2023/10/19 09:22:54;;;;;;;0.20;0.10;;;;;;;;;;5015349;28;20045;-84
2023/10/19 09:25:22;;;;;;;0.20;0.10;;;;;;;;;;5008880;28;20050;-83
2023/10/19 09:27:48;;;;;;;0.20;0.10;;;;;;;;;;4992239;28;20041;-84
2023/10/19 09:30:18;;;;;;;0.20;0.10;;;;;;;;;;4998073;28;20449;-84
2023/10/19 09:32:48;;;;;;;0.20;0.10;;;;;;;;;;5007795;28;20061;-84
2023/10/19 09:35:19;;;;;;;0.30;0.30;;;;;;;;;;5016271;28;20117;-83
2023/10/19 09:37:45;;;;;;;0.47;0.13;;;;;;;;;;5002533;28;20038;-82
2023/10/19 09:40:15;;;;;;;0.30;0.28;;;;;;;;;;5015188;28;20029;-84
2023/10/19 09:42:46;;;;;;;0.20;0.10;;;;;;;;;;4999414;28;20108;-86
2023/10/19 09:45:12;;;;;;;0.20;0.10;;;;;;;;;;4987379;28;20034;-84
2023/10/19 09:47:43;;;;;;;0.20;0.10;;;;;;;;;;4994450;28;20045;-83
2023/10/19 09:50:11;;;;;;;0.20;0.10;;;;;;;;;;4989708;28;20034;-83
2023/10/19 09:52:38;;;;;;;0.20;0.00;;;;;;;;;;4997153;28;20061;-84
2023/10/19 09:55:08;;;;;;;0.20;0.10;;;;;;;;;;5009857;28;20041;-85
2023/10/19 09:57:40;;;;;;;0.20;0.08;;;;;;;;;;5013971;28;20490;-84
2023/10/19 10:00:12;;;;;;;0.30;0.20;;;;;;;;;;5005909;28;20033;-84
2023/10/19 10:02:47;;;;;;;0.35;0.17;;;;;;;;;;5009565;28;20124;-85
2023/10/19 10:05:32;;;;;;;0.20;0.10;;;;;;;;;;4997248;28;20165;-84
2023/10/19 10:08:17;;;;;;;0.20;0.03;;;;;;;;;;5005759;28;20521;-83
2023/10/19 10:10:53;;;;;;;0.75;0.55;;;;;;;;;;4996132;28;20474;-84
2023/10/19 10:13:34;;;;;;;0.20;0.03;;;;;;;;;;4991855;28;20046;-85
2023/10/19 10:16:01;;;;;;;0.40;0.30;;;;;;;;;;4996748;28;20061;-84
2023/10/19 10:18:30;;;;;;;0.30;0.28;;;;;;;;;;5007419;28;20495;-84
2023/10/19 10:21:26;;;;;;;0.20;0.00;;;;;;;;;;4994271;28;20048;-84
2023/10/19 10:23:53;;;;;;;0.20;0.00;;;;;;;;;;4998605;28;20052;-84
2023/10/19 10:26:22;;;;;;;0.20;0.10;;;;;;;;;;4993300;28;20065;-85
2023/10/19 10:29:14;;;;;;;0.20;0.05;;;;;;;;;;4985328;28;20033;-84
2023/10/19 10:31:47;;;;;;;0.20;0.10;;;;;;;;;;5002997;28;20064;-84
2023/10/19 10:34:32;;;;;;;0.55;0.47;;;;;;;;;;4993917;28;20120;-82
2023/10/19 10:37:02;;;;;;;0.20;0.10;;;;;;;;;;4989578;28;20041;-83
2023/10/19 10:39:30;;;;;;;0.20;0.00;;;;;;;;;;4984815;28;20094;-84
2023/10/19 10:41:59;;;;;;;0.20;0.00;;;;;;;;;;5011354;28;20037;-86
2023/10/19 10:44:55;;;;;;;0.82;0.30;;;;;;;;;;4989547;28;20037;-84
2023/10/19 10:47:22;;;;;;;0.52;0.32;;;;;;;;;;5016609;28;20478;-86
2023/10/19 10:49:54;;;;;;;0.20;0.10;;;;;;;;;;4992969;28;20052;-86
2023/10/19 10:52:39;;;;;;;0.20;0.10;;;;;;;;;;4991315;28;20034;-87
2023/10/19 10:55:13;;;;;;;0.20;0.10;;;;;;;;;;5004022;28;20077;-85
2023/10/19 10:57:43;;;;;;;0.47;0.45;;;;;;;;;;4983061;28;20069;-87
2023/10/19 11:00:15;;;;;;;0.20;0.20;;;;;;;;;;4987929;28;20053;-84
2023/10/19 11:02:45;;;;;;;0.20;0.03;;;;;;;;;;4997559;28;20052;-83
2023/10/19 11:05:12;;;;;;;0.20;0.10;;;;;;;;;;4997693;28;20117;-84
2023/10/19 11:07:38;;;;;;;0.40;0.22;;;;;;;;;;4998155;28;20045;-85
2023/10/19 11:10:09;;;;;;;0.20;0.10;;;;;;;;;;4989933;28;20112;-86
2023/10/19 11:12:37;;;;;;;0.20;0.20;;;;;;;;;;4984523;28;20441;-85
2023/10/19 11:15:09;;;;;;;0.50;0.30;;;;;;;;;;4986809;28;20415;-86
2023/10/19 11:17:42;;;;;;;0.20;0.10;;;;;;;;;;4986065;28;20144;-86
2023/10/19 11:20:13;;;;;;;0.20;0.10;;;;;;;;;;4992801;28;20041;-85
2023/10/19 11:22:49;;;;;;;0.20;0.10;;;;;;;;;;4989341;28;20077;-86
2023/10/19 11:25:23;;;;;;;0.20;0.00;;;;;;;;;;4987515;28;20053;-87
2023/10/19 11:27:49;;;;;;;0.20;0.10;;;;;;;;;;5015267;28;20034;-87
2023/10/19 11:30:25;;;;;;;0.20;0.00;;;;;;;;;;4992267;28;20084;-86
2023/10/19 11:33:01;;;;;;;0.50;0.45;;;;;;;;;;4999160;28;20052;-85
2023/10/19 11:35:31;;;;;;;0.20;0.00;;;;;;;;;;4988577;28;20049;-86
2023/10/19 11:37:58;;;;;;;0.20;0.00;;;;;;;;;;5006930;28;20042;-86
2023/10/19 11:40:25;;;;;;;0.20;0.00;;;;;;;;;;4991595;28;20103;-85
2023/10/19 11:42:52;;;;;;;0.20;0.00;;;;;;;;;;4992567;28;20046;-85
2023/10/19 11:45:18;;;;;;;0.20;0.00;;;;;;;;;;4987054;28;20042;-85
2023/10/19 11:47:45;;;;;;;0.20;0.10;;;;;;;;;;4989864;28;20132;-86
2023/10/19 11:50:17;;;;;;;0.30;0.13;;;;;;;;;;4992828;28;20049;-84
2023/10/19 11:52:45;;;;;;;0.22;0.15;;;;;;;;;;4991997;28;20038;-85
2023/10/19 11:55:13;;;;;;;0.20;0.10;;;;;;;;;;4995235;28;20482;-84
2023/10/19 11:57:43;;;;;;;0.20;0.10;;;;;;;;;;4983428;28;20544;-85
2023/10/19 12:00:13;;;;;;;0.20;0.00;;;;;;;;;;5019030;28;20080;-86
2023/10/19 12:02:40;;;;;;;0.20;0.00;;;;;;;;;;5008030;28;20075;-85
2023/10/19 12:05:13;;;;;;;0.45;0.30;;;;;;;;;;4990204;28;20507;-86
2023/10/19 12:07:40;;;;;;;0.20;0.00;;;;;;;;;;5002561;28;20521;-83
2023/10/19 12:10:12;;;;;;;0.20;0.10;;;;;;;;;;4989408;28;20068;-85
2023/10/19 12:12:38;;;;;;;0.20;0.10;;;;;;;;;;4993074;28;20045;-84
2023/10/19 12:15:05;;;;;;;0.20;0.03;;;;;;;;;;4999770;28;20044;-87
2023/10/19 12:17:31;;;;;;;0.20;0.08;;;;;;;;;;4992736;28;20095;-84
2023/10/19 12:20:07;;;;;;;0.20;0.00;;;;;;;;;;5004548;28;20052;-86
2023/10/19 12:22:38;;;;;;;0.20;0.08;;;;;;;;;;4995108;28;20049;-87
2023/10/19 12:25:10;;;;;;;0.20;0.10;;;;;;;;;;4991311;28;20058;-86
2023/10/19 12:27:37;;;;;;;0.20;0.10;;;;;;;;;;4992907;28;20041;-85
2023/10/19 12:30:16;;;;;;;3.45;0.32;;;;;;;;;;4992123;28;20045;-84
2023/10/19 12:32:49;;;;;;;0.20;0.00;;;;;;;;;;4991502;28;20053;-85
2023/10/19 12:35:15;;;;;;;0.20;0.10;;;;;;;;;;5026946;28;20088;-87
2023/10/19 12:38:06;;;;;;;0.20;0.00;;;;;;;;;;5014617;22;20490;-82
2023/10/19 12:40:28;;;;;;;0.20;0.08;;;;;;;;;;5014303;28;20045;-83
2023/10/19 12:42:55;;;;;;;0.20;0.10;;;;;;;;;;5016862;28;20049;-83
2023/10/19 12:45:36;;;;;;;0.20;0.00;;;;;;;;;;4996542;28;20317;-83
2023/10/19 12:48:02;;;;;;;0.20;0.20;;;;;;;;;;5028206;28;20048;-82
2023/10/19 12:50:30;;;;;;;0.20;0.05;;;;;;;;;;5050980;28;20421;-83
2023/10/19 12:52:56;;;;;;;0.20;0.03;;;;;;;;;;5017484;28;20044;-82
2023/10/19 12:55:26;;;;;;;1.38;0.43;;;;;;;;;;5033849;28;20033;-81
2023/10/19 12:57:52;;;;;;;0.22;0.22;;;;;;;;;;5011656;28;20033;-85
2023/10/19 13:00:29;;;;;;;0.20;0.10;;;;;;;;;;5013473;28;20154;-86
2023/10/19 13:03:01;;;;;;;0.40;0.40;;;;;;;;;;5042815;28;20041;-84
2023/10/19 13:05:28;;;;;;;0.20;0.10;;;;;;;;;;5017276;28;20504;-83
2023/10/19 13:07:58;;;;;;;0.20;0.10;;;;;;;;;;5033349;28;20040;-83
2023/10/19 13:10:24;;;;;;;0.20;0.08;;;;;;;;;;5017147;28;20043;-82
2023/10/19 13:12:50;;;;;;;0.28;0.25;;;;;;;;;;5033529;28;20036;-84
2023/10/19 13:15:16;;;;;;;0.20;0.10;;;;;;;;;;5013046;28;20095;-81
2023/10/19 13:17:43;;;;;;;0.20;0.10;;;;;;;;;;5036611;28;20045;-83
2023/10/19 13:20:17;;;;;;;0.25;0.15;;;;;;;;;;5026805;28;20497;-81
2023/10/19 13:22:44;;;;;;;0.20;0.15;;;;;;;;;;5020721;28;20051;-83
2023/10/19 13:25:16;;;;;;;0.20;0.10;;;;;;;;;;5035325;28;20527;-85
2023/10/19 13:27:44;;;;;;;0.20;0.10;;;;;;;;;;5034536;28;20045;-85
2023/10/19 13:30:10;;;;;;;0.52;0.50;;;;;;;;;;5027452;28;20123;-83
2023/10/19 13:32:39;;;;;;;0.22;0.13;;;;;;;;;;5033456;28;20071;-90
2023/10/19 13:35:06;;;;;;;0.20;0.20;;;;;;;;;;5033737;28;20102;-84
2023/10/19 13:37:33;;;;;;;0.20;0.00;;;;;;;;;;5013423;28;20048;-81
2023/10/19 13:39:59;;;;;;;0.20;0.10;;;;;;;;;;5035341;28;20128;-80
2023/10/19 13:42:25;;;;;;;0.20;0.10;;;;;;;;;;5013859;28;20064;-82
2023/10/19 13:44:51;;;;;;;0.20;0.10;;;;;;;;;;5030757;28;20041;-83
2023/10/19 13:47:17;;;;;;;0.30;0.20;;;;;;;;;;5050122;28;20155;-82
2023/10/19 13:49:43;;;;;;;0.20;0.10;;;;;;;;;;5043784;28;20102;-86
2023/10/19 13:52:09;;;;;;;0.30;0.20;;;;;;;;;;5048352;28;20041;-83
2023/10/19 13:54:36;;;;;;;0.77;0.28;;;;;;;;;;5018192;28;20029;-86
2023/10/19 13:57:02;;;;;;;0.20;0.20;;;;;;;;;;5015735;28;20033;-84
2023/10/19 13:59:33;;;;;;;0.20;0.10;;;;;;;;;;5017996;28;20090;-83
2023/10/19 14:01:59;;;;;;;0.20;0.10;;;;;;;;;;5035041;28;20045;-81
2023/10/19 14:04:25;;;;;;;0.20;0.00;;;;;;;;;;5050468;28;20041;-82
2023/10/19 14:06:53;;;;;;;0.20;0.00;;;;;;;;;;5034341;28;20124;-84
2023/10/19 14:09:23;;;;;;;0.20;0.10;;;;;;;;;;5017783;28;20057;-82
2023/10/19 14:11:49;;;;;;;0.20;0.10;;;;;;;;;;5032457;28;20071;-82
2023/10/19 14:14:15;;;;;;;0.22;0.10;;;;;;;;;;5017135;28;20037;-81
2023/10/19 14:16:42;;;;;;;0.20;0.10;;;;;;;;;;5030088;28;20055;-82
2023/10/19 14:19:08;;;;;;;0.20;0.10;;;;;;;;;;5033449;28;20516;-83
2023/10/19 14:21:37;;;;;;;0.30;0.20;;;;;;;;;;5032607;28;20033;-86
2023/10/19 14:24:04;;;;;;;0.20;0.00;;;;;;;;;;5016383;28;20041;-85
2023/10/19 14:26:30;;;;;;;0.40;0.40;;;;;;;;;;5015288;28;20558;-83
2023/10/19 14:28:56;;;;;;;0.20;0.00;;;;;;;;;;5048332;28;20056;-84
2023/10/19 14:31:22;;;;;;;0.20;0.08;;;;;;;;;;5033016;28;20048;-84
2023/10/19 14:33:48;;;;;;;3.65;0.98;;;;;;;;;;5009327;28;20510;-84
2023/10/19 14:36:15;;;;;;;0.30;0.30;;;;;;;;;;5045669;28;20033;-82
2023/10/19 14:38:43;;;;;;;0.20;0.00;;;;;;;;;;5032012;28;20568;-83
2023/10/19 14:41:11;;;;;;;0.20;0.10;;;;;;;;;;5022946;28;20117;-85
2023/10/19 14:43:37;;;;;;;0.20;0.10;;;;;;;;;;5030924;28;20064;-85
2023/10/19 14:46:06;;;;;;;0.20;0.10;;;;;;;;;;5031431;28;21268;-85
2023/10/19 14:48:32;;;;;;;0.20;0.00;;;;;;;;;;5016706;28;20029;-82
2023/10/19 14:50:58;;;;;;;0.20;0.00;;;;;;;;;;5033295;28;20405;-86
2023/10/19 14:53:24;;;;;;;0.80;0.38;;;;;;;;;;5033497;28;20123;-84
2023/10/19 14:55:50;;;;;;;0.20;0.10;;;;;;;;;;5032047;28;20033;-82
2023/10/19 14:58:18;;;;;;;0.20;0.10;;;;;;;;;;5029718;28;20052;-86
2023/10/19 15:00:46;;;;;;;0.20;0.10;;;;;;;;;;5014368;28;20123;-83
2023/10/19 15:03:13;;;;;;;0.45;0.25;;;;;;;;;;5014655;28;20045;-80
2023/10/19 15:05:41;;;;;;;0.20;0.08;;;;;;;;;;5035002;28;20124;-79
2023/10/19 15:08:09;;;;;;;0.20;0.10;;;;;;;;;;5034012;28;20048;-82
2023/10/19 15:10:37;;;;;;;0.20;0.10;;;;;;;;;;5032081;28;20115;-83
2023/10/19 15:13:05;;;;;;;0.20;0.10;;;;;;;;;;5029565;28;20041;-86
2023/10/19 15:15:31;;;;;;;0.20;0.10;;;;;;;;;;5013506;28;20043;-86